National Weather Service Raw Text Product

Displaying AFOS PIL: TAFOTM Received: 2018-01-12 06:59 UTC


884 
FTUS43 KDMX 120659 AAC
TAFOTM
TAF AMD
KOTM 120659Z 1207/1306 32022G29KT P6SM BKN017
     FM121000 33018G24KT P6SM SKC
     FM121300 33015KT P6SM SKC
     FM130300 35014KT P6SM BKN090=